createdAt,value
2022-09-20T00:00:47.367Z,98211.34
2022-09-20T00:03:15.355Z,98184.28
2022-09-20T00:05:44.490Z,98213.13
2022-09-20T00:08:16.695Z,98208.81
2022-09-20T00:10:43.680Z,98217.63
2022-09-20T00:13:13.593Z,98223.75
2022-09-20T00:15:44.820Z,98218.44
2022-09-20T00:18:12.068Z,98215.78
2022-09-20T00:20:48.910Z,98223.75
2022-09-20T00:23:16.296Z,98208.31
2022-09-20T00:25:43.517Z,98214.97
2022-09-20T00:28:11.214Z,98218.44
2022-09-20T00:30:38.220Z,98214.09
2022-09-20T00:33:04.980Z,98218.56
2022-09-20T00:35:31.596Z,98220.25
2022-09-20T00:37:58.128Z,98202.72
2022-09-20T00:40:27.056Z,98207.75
2022-09-20T00:42:53.941Z,98221.22
2022-09-20T00:45:25.951Z,98224.69
2022-09-20T00:48:15.934Z,98223.00
2022-09-20T00:50:47.082Z,98220.38
2022-09-20T00:53:18.857Z,98215.06
2022-09-20T00:55:50.067Z,98225.66
2022-09-20T00:58:20.019Z,98223.00
2022-09-20T01:00:48.802Z,98228.31
2022-09-20T01:03:20.583Z,98233.63
2022-09-20T01:05:47.160Z,98217.72
2022-09-20T01:08:15.795Z,98215.06
2022-09-20T01:10:43.031Z,98232.78
2022-09-20T01:13:09.533Z,98218.72
2022-09-20T01:15:38.391Z,98217.72
2022-09-20T01:18:07.160Z,98199.94
2022-09-20T01:20:38.838Z,98222.19
2022-09-20T01:23:05.308Z,98222.19
2022-09-20T01:25:56.937Z,98219.53
2022-09-20T01:28:24.487Z,98202.00
2022-09-20T01:31:25.684Z,98223.00
2022-09-20T01:33:59.764Z,98221.38
2022-09-20T01:36:50.884Z,98223.16
2022-09-20T01:39:29.729Z,98218.72
2022-09-20T01:42:06.565Z,98223.16
2022-09-20T01:44:46.900Z,98213.75
2022-09-20T01:47:35.667Z,98236.41
2022-09-20T01:50:21.051Z,98203.91
2022-09-20T01:52:50.860Z,98220.59
2022-09-20T01:56:08.577Z,98226.75
2022-09-20T01:59:23.310Z,98217.97
2022-09-20T02:01:53.195Z,98231.09
2022-09-20T02:04:44.754Z,98226.75
2022-09-20T02:07:38.220Z,98226.75
2022-09-20T02:10:17.680Z,98222.41
2022-09-20T02:12:54.123Z,98231.19
2022-09-20T02:15:42.716Z,98240.00
2022-09-20T02:18:18.139Z,98233.00
2022-09-20T02:20:56.196Z,98234.72
2022-09-20T02:23:41.914Z,98242.66
2022-09-20T02:26:26.868Z,98237.47
2022-09-20T02:29:14.591Z,98233.00
2022-09-20T02:32:07.369Z,98228.94
2022-09-20T02:34:51.924Z,98237.47
2022-09-20T02:37:30.688Z,98234.81
2022-09-20T02:40:34.963Z,98241.94
2022-09-20T02:43:23.228Z,98242.03
2022-09-20T02:46:01.713Z,98242.19
2022-09-20T02:48:42.680Z,98249.16
2022-09-20T02:51:14.263Z,98247.25
2022-09-20T02:54:03.623Z,98247.25
2022-09-20T02:57:21.503Z,98242.75
2022-09-20T03:00:02.176Z,98248.19
2022-09-20T03:02:40.880Z,98248.19
2022-09-20T03:05:19.570Z,98245.56
2022-09-20T03:08:04.736Z,98245.56
2022-09-20T03:11:02.131Z,98252.63
2022-09-20T03:14:02.770Z,98247.34
2022-09-20T03:16:57.869Z,98254.47
2022-09-20T03:19:46.061Z,98253.63
2022-09-20T03:22:38.528Z,98252.78
2022-09-20T03:25:11.219Z,98252.78
2022-09-20T03:27:41.040Z,98255.44
2022-09-20T03:30:28.918Z,98259.75
2022-09-20T03:33:29.955Z,98267.72
2022-09-20T03:36:20.647Z,98263.22
2022-09-20T03:39:18.379Z,98274.81
2022-09-20T03:41:57.856Z,98260.78
2022-09-20T03:44:36.717Z,98281.91
2022-09-20T03:47:31.913Z,98269.53
2022-09-20T03:50:04.534Z,98273.97
2022-09-20T03:52:45.863Z,98277.47
2022-09-20T03:55:14.064Z,98276.63
2022-09-20T03:57:46.555Z,98287.22
2022-09-20T04:00:31.632Z,98285.41
2022-09-20T04:03:25.695Z,98291.53
2022-09-20T04:05:58.059Z,98287.22
2022-09-20T04:09:02.059Z,98292.50
2022-09-20T04:11:42.662Z,98293.47
2022-09-20T04:14:25.387Z,98300.47
2022-09-20T04:17:05.809Z,98313.69
2022-09-20T04:19:44.734Z,98305.75
2022-09-20T04:22:11.942Z,98298.66
2022-09-20T04:24:38.932Z,98297.81
2022-09-20T04:27:10.391Z,98305.63
2022-09-20T04:29:46.460Z,98302.16
2022-09-20T04:32:32.195Z,98306.63
2022-09-20T04:35:39.577Z,98309.25
2022-09-20T04:38:14.801Z,98310.22
2022-09-20T04:41:34.372Z,98304.47
2022-09-20T04:44:13.001Z,98311.19
2022-09-20T04:46:39.501Z,98308.53
2022-09-20T04:49:24.784Z,98309.38
2022-09-20T04:52:22.289Z,98311.19
2022-09-20T04:55:16.607Z,98319.97
2022-09-20T04:58:01.504Z,98318.19
2022-09-20T05:00:55.843Z,98311.06
2022-09-20T05:03:41.264Z,98314.56
2022-09-20T05:06:16.816Z,98316.34
2022-09-20T05:09:08.226Z,98320.81
2022-09-20T05:11:48.524Z,98321.66
2022-09-20T05:14:38.584Z,98319.72
2022-09-20T05:17:41.455Z,98306.63
2022-09-20T05:20:40.205Z,98325.03
2022-09-20T05:23:31.068Z,98332.97
2022-09-20T05:26:08.001Z,98336.44
2022-09-20T05:29:02.308Z,98334.66
2022-09-20T05:31:38.904Z,98334.66
2022-09-20T05:34:33.010Z,98336.31
2022-09-20T05:37:12.265Z,98334.66
2022-09-20T05:39:50.236Z,98332.00
2022-09-20T05:42:23.041Z,98338.13
2022-09-20T05:45:07.871Z,98334.66
2022-09-20T05:47:55.088Z,98336.31
2022-09-20T05:50:27.466Z,98340.69
2022-09-20T05:52:59.326Z,98340.78
2022-09-20T05:55:44.455Z,98342.38
2022-09-20T05:58:38.973Z,98345.97
2022-09-20T06:01:29.785Z,98353.94
2022-09-20T06:04:12.698Z,98355.63
2022-09-20T06:06:57.363Z,98351.19
2022-09-20T06:09:45.296Z,98355.50
2022-09-20T06:12:38.259Z,98351.88
2022-09-20T06:15:19.683Z,98357.19
2022-09-20T06:18:15.227Z,98368.63
2022-09-20T06:21:00.344Z,98370.31
2022-09-20T06:23:27.587Z,98364.16
2022-09-20T06:25:59.839Z,98369.34
2022-09-20T06:28:30.816Z,98371.16
2022-09-20T06:30:57.512Z,98373.66
2022-09-20T06:33:25.466Z,98371.00
2022-09-20T06:35:59.183Z,98378.84
2022-09-20T06:39:02.684Z,98382.22
2022-09-20T06:41:32.390Z,98383.16
2022-09-20T06:44:05.465Z,98385.00
2022-09-20T06:46:34.321Z,98384.13
2022-09-20T06:49:01.037Z,98380.66
2022-09-20T06:51:33.665Z,98392.09
2022-09-20T06:54:01.853Z,98392.09
2022-09-20T06:56:31.304Z,98399.19
2022-09-20T06:58:58.140Z,98393.91
2022-09-20T07:01:30.097Z,98400.03
2022-09-20T07:03:58.585Z,98391.25
2022-09-20T07:06:25.391Z,98402.69
2022-09-20T07:08:52.077Z,98401.84
2022-09-20T07:11:18.895Z,98400.16
2022-09-20T07:13:50.726Z,98402.69
2022-09-20T07:16:17.693Z,98415.94
2022-09-20T07:18:44.279Z,98423.88
2022-09-20T07:21:18.959Z,98360.97
2022-09-20T07:23:46.079Z,98426.44
2022-09-20T07:26:27.797Z,98429.06
2022-09-20T07:28:55.411Z,98432.56
2022-09-20T07:31:24.154Z,98432.56
2022-09-20T07:33:53.747Z,98432.56
2022-09-20T07:36:20.551Z,98436.91
2022-09-20T07:38:50.112Z,98436.91
2022-09-20T07:41:19.045Z,98442.06
2022-09-20T07:43:46.551Z,98433.28
2022-09-20T07:46:15.989Z,98438.47
2022-09-20T07:48:42.680Z,98438.47
2022-09-20T07:51:13.558Z,98437.63
2022-09-20T07:53:41.111Z,98441.94
2022-09-20T07:56:18.343Z,98446.28
2022-09-20T07:58:48.726Z,98438.31
2022-09-20T08:01:21.002Z,98448.81
2022-09-20T08:03:47.852Z,98447.97
2022-09-20T08:06:16.279Z,98454.13
2022-09-20T08:08:43.451Z,98446.16
2022-09-20T08:11:12.719Z,98453.13
2022-09-20T08:16:28.957Z,98432.81
2022-09-20T08:18:58.739Z,98448.56
2022-09-20T08:21:27.743Z,98454.59
2022-09-20T08:23:54.448Z,98451.06
2022-09-20T08:26:24.512Z,98460.72
2022-09-20T08:28:53.216Z,98456.28
2022-09-20T08:31:22.048Z,98462.41
2022-09-20T08:33:50.396Z,98464.91
2022-09-20T08:36:22.494Z,98458.78
2022-09-20T08:41:39.394Z,98463.13
2022-09-20T08:44:14.930Z,98470.13
2022-09-20T08:46:56.175Z,98475.44
2022-09-20T08:49:27.552Z,98477.09
2022-09-20T08:51:58.005Z,98482.28
2022-09-20T08:54:32.688Z,98481.41
2022-09-20T08:57:10.833Z,98486.59
2022-09-20T08:59:37.454Z,98458.34
2022-09-20T09:02:14.018Z,98483.94
2022-09-20T09:04:44.697Z,98466.47
2022-09-20T09:07:16.252Z,98470.59
2022-09-20T09:09:47.308Z,98470.59
2022-09-20T09:12:20.907Z,98471.28
2022-09-20T09:17:29.597Z,98483.72
2022-09-20T09:20:15.371Z,98470.44
2022-09-20T09:22:45.515Z,98478.28
2022-09-20T09:25:15.229Z,98477.31
2022-09-20T09:27:58.468Z,98474.78
2022-09-20T09:30:36.027Z,98408.13
2022-09-20T09:33:30.712Z,98474.66
2022-09-20T09:36:08.926Z,98470.19
2022-09-20T09:38:41.478Z,98471.88
2022-09-20T09:41:26.852Z,98464.78
2022-09-20T09:44:10.387Z,98467.53
2022-09-20T09:46:40.032Z,98457.53
2022-09-20T09:49:12.079Z,98455.59
2022-09-20T09:51:42.416Z,98454.63
2022-09-20T09:54:17.685Z,98444.03
2022-09-20T09:56:57.322Z,98452.72
2022-09-20T09:59:29.891Z,98453.53
2022-09-20T10:02:30.885Z,98450.75
2022-09-20T10:05:22.375Z,98449.94
2022-09-20T10:08:10.957Z,98452.59
2022-09-20T10:11:10.180Z,98445.44
2022-09-20T10:13:40.896Z,98445.34
2022-09-20T10:16:10.533Z,98438.22
2022-09-20T10:18:44.041Z,98445.22
2022-09-20T10:21:43.417Z,98446.03
2022-09-20T10:24:30.231Z,98437.25
2022-09-20T10:27:22.551Z,98439.91
2022-09-20T10:29:52.994Z,98440.75
2022-09-20T10:32:45.745Z,98443.41
2022-09-20T10:35:27.635Z,98442.56
2022-09-20T10:37:54.383Z,98447.88
2022-09-20T10:40:53.616Z,98444.25
2022-09-20T10:43:41.858Z,98440.59
2022-09-20T10:46:31.476Z,98449.41
2022-09-20T10:49:24.861Z,98446.63
2022-09-20T10:52:00.783Z,98430.78
2022-09-20T10:55:03.513Z,98456.28
2022-09-20T10:58:07.473Z,98452.66
2022-09-20T11:01:03.730Z,98452.81
2022-09-20T11:03:51.184Z,98452.81
2022-09-20T11:06:50.520Z,98455.56
2022-09-20T11:09:27.464Z,98452.91
2022-09-20T11:12:03.384Z,98456.41
2022-09-20T11:14:41.328Z,98459.06
2022-09-20T11:17:15.761Z,98454.59
2022-09-20T11:20:07.674Z,98459.91
2022-09-20T11:22:43.687Z,98450.16
2022-09-20T11:25:51.895Z,98459.06
2022-09-20T11:28:28.100Z,98461.72
2022-09-20T11:31:02.440Z,98447.88
2022-09-20T11:33:40.754Z,98458.34
2022-09-20T11:36:17.597Z,98463.13
2022-09-20T11:38:53.627Z,98456.88
2022-09-20T11:41:27.215Z,98461.53
2022-09-20T11:43:57.291Z,98459.59
2022-09-20T11:46:55.888Z,98459.59
2022-09-20T11:49:28.535Z,98464.91
2022-09-20T11:52:38.185Z,98462.25
2022-09-20T11:55:16.596Z,98463.81
2022-09-20T11:57:43.756Z,98461.78
2022-09-20T12:00:10.629Z,98442.72
2022-09-20T12:02:53.364Z,98453.69
2022-09-20T12:05:38.956Z,98466.81
2022-09-20T12:08:20.768Z,98458.84
2022-09-20T12:10:58.912Z,98464.16
2022-09-20T12:13:27.647Z,98455.25
2022-09-20T12:16:01.170Z,98462.81
2022-09-20T12:18:39.180Z,98458.25
2022-09-20T12:21:07.377Z,98457.97
2022-09-20T12:23:42.942Z,98453.53
2022-09-20T12:26:18.682Z,98452.41
2022-09-20T12:28:50.955Z,98450.47
2022-09-20T12:31:30.904Z,98448.53
2022-09-20T12:34:10.624Z,98433.13
2022-09-20T12:36:38.583Z,98445.50
2022-09-20T12:39:19.100Z,98457.66
2022-09-20T12:41:58.556Z,98474.41
2022-09-20T12:44:25.056Z,98479.72
2022-09-20T12:47:00.118Z,98481.28
2022-09-20T12:49:48.496Z,98481.16
2022-09-20T12:52:56.153Z,98481.84
2022-09-20T12:55:26.135Z,98488.84
2022-09-20T12:58:01.922Z,98494.88
2022-09-20T13:00:37.038Z,98493.91
2022-09-20T13:03:37.210Z,98488.47
2022-09-20T13:06:06.675Z,98493.66
2022-09-20T13:09:00.776Z,98489.19
2022-09-20T13:11:42.450Z,98498.84
2022-09-20T13:14:18.618Z,98496.19
2022-09-20T13:16:50.053Z,98504.03
2022-09-20T13:19:20.504Z,98498.72
2022-09-20T13:22:10.302Z,98502.19
2022-09-20T13:24:45.021Z,98485.81
2022-09-20T13:27:20.197Z,98482.19
2022-09-20T13:29:47.265Z,98489.78
2022-09-20T13:32:17.051Z,98486.13
2022-09-20T13:34:43.883Z,98483.47
2022-09-20T13:37:20.997Z,98490.47
2022-09-20T13:39:52.947Z,98484.19
2022-09-20T13:42:19.821Z,98473.56
2022-09-20T13:44:48.407Z,98481.53
2022-09-20T13:47:29.269Z,98475.25
2022-09-20T13:50:23.220Z,98471.66
2022-09-20T13:52:54.076Z,98478.88
2022-09-20T13:55:27.041Z,98478.66
2022-09-20T13:57:56.651Z,98464.72
2022-09-20T14:00:27.823Z,98475.84
2022-09-20T14:02:55.480Z,98484.66
2022-09-20T14:05:26.275Z,98479.22
2022-09-20T14:07:53.788Z,98476.56
2022-09-20T14:10:31.874Z,98487.06
2022-09-20T14:13:02.066Z,98477.09
2022-09-20T14:15:36.396Z,98487.06
2022-09-20T14:18:07.039Z,98467.53
2022-09-20T14:20:34.319Z,98490.53
2022-09-20T14:23:04.051Z,98493.06
2022-09-20T14:25:30.937Z,98487.88
2022-09-20T14:28:19.917Z,98488.75
2022-09-20T14:30:48.345Z,98436.22
2022-09-20T14:33:19.427Z,98491.41
2022-09-20T14:35:52.940Z,98488.75
2022-09-20T14:38:24.773Z,98489.38
2022-09-20T14:40:52.300Z,98489.84
2022-09-20T14:43:33.782Z,98493.47
2022-09-20T14:46:28.508Z,98497.53
2022-09-20T14:48:55.288Z,98497.41
2022-09-20T14:51:25.192Z,98504.53
2022-09-20T14:54:12.903Z,98498.25
2022-09-20T14:56:42.619Z,98433.34
2022-09-20T14:59:13.845Z,98505.25
2022-09-20T15:01:44.954Z,98508.75
2022-09-20T15:04:21.582Z,98506.09
2022-09-20T15:06:50.049Z,98509.72
2022-09-20T15:09:19.363Z,98521.06
2022-09-20T15:11:46.294Z,98490.81
2022-09-20T15:14:12.837Z,98520.91
2022-09-20T15:16:39.457Z,98515.47
2022-09-20T15:19:07.982Z,98513.66
2022-09-20T15:21:34.601Z,98514.63
2022-09-20T15:24:01.381Z,98513.66
2022-09-20T15:26:27.986Z,98512.81
2022-09-20T15:28:54.651Z,98510.91
2022-09-20T15:31:22.172Z,98523.31
2022-09-20T15:33:48.719Z,98516.31
2022-09-20T15:36:18.932Z,98520.66
2022-09-20T15:38:45.670Z,98513.84
2022-09-20T15:41:14.355Z,98519.75
2022-09-20T15:43:43.178Z,98532.56
2022-09-20T15:46:22.106Z,98529.78
2022-09-20T15:48:48.732Z,98534.25
2022-09-20T15:51:15.455Z,98531.84
2022-09-20T15:53:49.324Z,98532.84
2022-09-20T15:56:21.172Z,98534.63
2022-09-20T15:58:59.385Z,98534.78
2022-09-20T16:01:28.213Z,98541.78
2022-09-20T16:03:55.939Z,98531.84
2022-09-20T16:06:23.809Z,98539.44
2022-09-20T16:08:51.916Z,98538.59
2022-09-20T16:11:22.942Z,98542.22
2022-09-20T16:13:54.823Z,98545.97
2022-09-20T16:16:21.822Z,98548.88
2022-09-20T16:19:07.417Z,98526.16
2022-09-20T16:21:36.457Z,98552.41
2022-09-20T16:24:03.293Z,98556.75
2022-09-20T16:26:31.318Z,98555.75
2022-09-20T16:28:58.330Z,98557.44
2022-09-20T16:31:34.522Z,98559.94
2022-09-20T16:34:12.612Z,98560.69
2022-09-20T16:36:43.411Z,98568.50
2022-09-20T16:39:10.973Z,98568.63
2022-09-20T16:41:39.069Z,98572.25
2022-09-20T16:44:06.157Z,98580.22
2022-09-20T16:46:37.003Z,98581.09
2022-09-20T16:49:07.032Z,98591.44
2022-09-20T16:51:36.422Z,98597.47
2022-09-20T16:54:32.099Z,98595.66
2022-09-20T16:57:00.430Z,98605.44
2022-09-20T16:59:27.210Z,98603.75
2022-09-20T17:01:55.807Z,98608.22
2022-09-20T17:04:22.574Z,98609.19
2022-09-20T17:06:50.246Z,98613.53
2022-09-20T17:09:17.100Z,98632.13
2022-09-20T17:11:47.043Z,98633.22
2022-09-20T17:14:16.333Z,98628.97
2022-09-20T17:16:43.712Z,98638.03
2022-09-20T17:19:13.106Z,98639.28
2022-09-20T17:21:46.194Z,98639.28
2022-09-20T17:24:14.077Z,98637.94
2022-09-20T17:26:44.419Z,98636.63
2022-09-20T17:29:15.392Z,98635.78
2022-09-20T17:31:48.748Z,98642.19
2022-09-20T17:34:21.457Z,98644.25
2022-09-20T17:36:49.021Z,98641.69
2022-09-20T17:39:16.459Z,98639.91
2022-09-20T17:41:45.967Z,98646.31
2022-09-20T17:44:13.199Z,98643.06
2022-09-20T17:46:44.266Z,98638.84
2022-09-20T17:49:13.008Z,98642.94
2022-09-20T17:51:45.803Z,98644.84
2022-09-20T17:54:13.979Z,98652.97
2022-09-20T17:56:46.391Z,98647.78
2022-09-20T17:59:16.303Z,98655.63
2022-09-20T18:01:44.633Z,98662.75
2022-09-20T18:04:11.993Z,98655.88
2022-09-20T18:06:44.100Z,98665.13
2022-09-20T18:09:12.225Z,98676.63
2022-09-20T18:11:41.488Z,98681.06
2022-09-20T18:14:13.295Z,98680.09
2022-09-20T18:16:40.325Z,98678.78
2022-09-20T18:19:08.386Z,98685.97
2022-09-20T18:21:36.831Z,98682.81
2022-09-20T18:24:07.774Z,98686.19
2022-09-20T18:26:35.468Z,98690.63
2022-09-20T18:29:09.426Z,98683.78
2022-09-20T18:31:39.067Z,98687.53
2022-09-20T18:34:07.668Z,98685.47
2022-09-20T18:36:38.576Z,98704.06
2022-09-20T18:39:06.540Z,98705.00
2022-09-20T18:41:35.926Z,98713.13
2022-09-20T18:44:04.228Z,98713.84
2022-09-20T18:46:31.284Z,98715.75
2022-09-20T18:49:02.351Z,98721.22
2022-09-20T18:51:29.111Z,98720.47
2022-09-20T18:53:56.661Z,98720.25
2022-09-20T18:56:31.923Z,98725.66
2022-09-20T18:59:07.991Z,98730.38
2022-09-20T19:02:12.324Z,98726.06
2022-09-20T19:05:14.782Z,98731.09
2022-09-20T19:07:50.694Z,98734.97
2022-09-20T19:10:49.321Z,98733.41
2022-09-20T19:14:11.895Z,98728.72
2022-09-20T19:16:38.655Z,98733.16
2022-09-20T19:19:33.824Z,98730.63
2022-09-20T19:22:08.088Z,98731.59
2022-09-20T19:24:55.535Z,98738.47
2022-09-20T19:27:23.429Z,98732.47
2022-09-20T19:29:50.286Z,98738.72
2022-09-20T19:32:21.143Z,98723.16
2022-09-20T19:34:52.099Z,98731.38
2022-09-20T19:37:36.598Z,98736.78
2022-09-20T19:40:59.505Z,98734.38
2022-09-20T19:43:38.330Z,98731.47
2022-09-20T19:46:19.054Z,98737.63
2022-09-20T19:49:12.859Z,98736.06
2022-09-20T19:51:41.373Z,98745.00
2022-09-20T19:54:12.057Z,98741.25
2022-09-20T19:56:52.893Z,98732.91
2022-09-20T19:59:24.714Z,98736.19
2022-09-20T20:01:52.500Z,98739.81
2022-09-20T20:04:20.584Z,98741.25
2022-09-20T20:06:50.399Z,98751.13
2022-09-20T20:09:43.489Z,98750.44
2022-09-20T20:12:34.121Z,98750.44
2022-09-20T20:15:05.691Z,98752.00
2022-09-20T20:17:48.464Z,98753.09
2022-09-20T20:20:43.892Z,98757.69
2022-09-20T20:23:19.149Z,98761.06
2022-09-20T20:26:13.836Z,98748.63
2022-09-20T20:28:40.460Z,98756.81
2022-09-20T20:31:09.143Z,98763.13
2022-09-20T20:33:36.877Z,98757.53
2022-09-20T20:36:03.512Z,98746.59
2022-09-20T20:38:37.229Z,98759.47
2022-09-20T20:41:09.648Z,98756.09
2022-09-20T20:43:42.003Z,98753.19
2022-09-20T20:46:12.160Z,98753.19
2022-09-20T20:48:38.699Z,98744.41
2022-09-20T20:51:12.608Z,98749.09
2022-09-20T20:53:45.194Z,98762.97
2022-09-20T20:56:17.139Z,98758.63
2022-09-20T20:58:45.028Z,98755.16
2022-09-20T21:01:15.723Z,98755.38
2022-09-20T21:03:46.365Z,98756.09
2022-09-20T21:06:14.780Z,98752.50
2022-09-20T21:08:48.310Z,98762.38
2022-09-20T21:11:19.747Z,98735.38
2022-09-20T21:13:48.336Z,98751.63
2022-09-20T21:16:17.827Z,98758.75
2022-09-20T21:18:46.428Z,98761.66
2022-09-20T21:21:27.397Z,98758.53
2022-09-20T21:23:59.447Z,98760.69
2022-09-20T21:26:28.276Z,98757.19
2022-09-20T21:28:59.640Z,98762.59
2022-09-20T21:31:28.474Z,98757.56
2022-09-20T21:33:56.020Z,98762.59
2022-09-20T21:36:25.292Z,98764.44
2022-09-20T21:38:52.378Z,98758.38
2022-09-20T21:41:27.503Z,98757.56
2022-09-20T21:43:57.086Z,98771.44
2022-09-20T21:46:32.582Z,98768.03
2022-09-20T21:49:01.558Z,98744.41
2022-09-20T21:51:31.219Z,98757.44
2022-09-20T21:53:59.658Z,98771.56
2022-09-20T21:56:28.865Z,98770.69
2022-09-20T21:58:55.775Z,98768.19
2022-09-20T22:01:25.300Z,98768.31
2022-09-20T22:03:56.464Z,98766.25
2022-09-20T22:06:29.552Z,98776.88
2022-09-20T22:08:58.406Z,98770.09
2022-09-20T22:11:27.492Z,98772.75
2022-09-20T22:13:55.631Z,98753.09
2022-09-20T22:16:30.719Z,98769.13
2022-09-20T22:18:59.640Z,98775.41
2022-09-20T22:21:36.648Z,98774.56
2022-09-20T22:24:08.553Z,98710.25
2022-09-20T22:26:39.961Z,98784.22
2022-09-20T22:29:06.612Z,98783.50
2022-09-20T22:31:36.799Z,98778.31
2022-09-20T22:34:05.867Z,98776.28
2022-09-20T22:36:35.335Z,98773.72
2022-09-20T22:39:03.735Z,98768.66
2022-09-20T22:41:30.284Z,98766.50
2022-09-20T22:43:56.819Z,98776.38
2022-09-20T22:46:25.652Z,98772.88
2022-09-20T22:48:52.585Z,98780.97
2022-09-20T22:51:21.859Z,98774.94
2022-09-20T22:53:49.313Z,98775.53
2022-09-20T22:56:24.864Z,98771.06
2022-09-20T22:58:56.094Z,98771.31
2022-09-20T23:01:25.277Z,98771.44
2022-09-20T23:03:57.842Z,98770.22
2022-09-20T23:06:28.064Z,98770.34
2022-09-20T23:08:59.018Z,98775.75
2022-09-20T23:11:26.123Z,98757.19
2022-09-20T23:13:54.980Z,98783.63
2022-09-20T23:16:28.139Z,98771.44
2022-09-20T23:18:56.303Z,98779.41
2022-09-20T23:21:23.104Z,98781.19
2022-09-20T23:24:09.755Z,98777.59
2022-09-20T23:26:38.735Z,98785.53
2022-09-20T23:29:08.108Z,98778.69
2022-09-20T23:31:37.043Z,98788.47
2022-09-20T23:34:05.894Z,98786.38
2022-09-20T23:36:35.510Z,98791.81
2022-09-20T23:39:02.075Z,98790.13
2022-09-20T23:41:28.859Z,98792.16
2022-09-20T23:43:55.604Z,98796.28
2022-09-20T23:46:25.302Z,98790.97
2022-09-20T23:48:52.614Z,98795.56
2022-09-20T23:51:22.493Z,98795.81
2022-09-20T23:53:49.531Z,98799.91
2022-09-20T23:56:16.035Z,98794.59
2022-09-20T23:58:44.051Z,98793.16
